sensor_id;sensor_type;location;lat;lon;timestamp;temperature;humidity
3919;DHT22;1974;48.670;8.994;2024-02-21T00:02:25;6.30;99.90
3919;DHT22;1974;48.670;8.994;2024-02-21T00:04:52;6.30;99.90
3919;DHT22;1974;48.670;8.994;2024-02-21T00:07:20;6.20;99.90
3919;DHT22;1974;48.670;8.994;2024-02-21T00:09:47;6.30;99.90
3919;DHT22;1974;48.670;8.994;2024-02-21T00:12:14;6.20;99.90
3919;DHT22;1974;48.670;8.994;2024-02-21T00:14:41;6.20;99.90
3919;DHT22;1974;48.670;8.994;2024-02-21T00:17:07;6.20;99.90
3919;DHT22;1974;48.670;8.994;2024-02-21T00:19:34;6.20;99.90
3919;DHT22;1974;48.670;8.994;2024-02-21T00:22:01;6.20;99.90
3919;DHT22;1974;48.670;8.994;2024-02-21T00:24:29;6.20;99.90
3919;DHT22;1974;48.670;8.994;2024-02-21T00:26:56;6.20;99.90
3919;DHT22;1974;48.670;8.994;2024-02-21T00:29:22;6.10;99.90
3919;DHT22;1974;48.670;8.994;2024-02-21T00:31:49;6.10;99.90
3919;DHT22;1974;48.670;8.994;2024-02-21T00:34:16;6.10;99.90
3919;DHT22;1974;48.670;8.994;2024-02-21T00:36:43;6.10;99.90
3919;DHT22;1974;48.670;8.994;2024-02-21T00:39:09;6.10;99.90
3919;DHT22;1974;48.670;8.994;2024-02-21T00:41:37;6.10;99.90
3919;DHT22;1974;48.670;8.994;2024-02-21T00:44:04;6.20;99.90
3919;DHT22;1974;48.670;8.994;2024-02-21T00:46:31;6.20;99.90
3919;DHT22;1974;48.670;8.994;2024-02-21T00:48:58;6.10;99.90
3919;DHT22;1974;48.670;8.994;2024-02-21T00:51:25;6.10;99.90
3919;DHT22;1974;48.670;8.994;2024-02-21T00:53:51;6.10;99.90
3919;DHT22;1974;48.670;8.994;2024-02-21T00:56:18;6.10;99.90
3919;DHT22;1974;48.670;8.994;2024-02-21T00:58:46;6.10;99.90
3919;DHT22;1974;48.670;8.994;2024-02-21T01:01:13;6.20;99.90
3919;DHT22;1974;48.670;8.994;2024-02-21T01:03:39;6.20;99.90
3919;DHT22;1974;48.670;8.994;2024-02-21T01:06:06;6.20;99.90
3919;DHT22;1974;48.670;8.994;2024-02-21T01:08:33;6.20;99.90
3919;DHT22;1974;48.670;8.994;2024-02-21T01:11:00;6.20;99.90
3919;DHT22;1974;48.670;8.994;2024-02-21T01:13:26;6.20;99.90
3919;DHT22;1974;48.670;8.994;2024-02-21T01:15:54;6.20;99.90
3919;DHT22;1974;48.670;8.994;2024-02-21T01:18:21;6.20;99.90
3919;DHT22;1974;48.670;8.994;2024-02-21T01:20:48;6.20;99.90
3919;DHT22;1974;48.670;8.994;2024-02-21T01:23:14;6.10;99.90
3919;DHT22;1974;48.670;8.994;2024-02-21T01:25:41;6.10;99.90
3919;DHT22;1974;48.670;8.994;2024-02-21T01:28:08;6.00;99.90
3919;DHT22;1974;48.670;8.994;2024-02-21T01:30:34;6.10;99.90
3919;DHT22;1974;48.670;8.994;2024-02-21T01:33:03;6.10;99.90
3919;DHT22;1974;48.670;8.994;2024-02-21T01:35:30;6.10;99.90
3919;DHT22;1974;48.670;8.994;2024-02-21T01:37:57;6.00;99.90
3919;DHT22;1974;48.670;8.994;2024-02-21T01:40:23;6.00;99.90
3919;DHT22;1974;48.670;8.994;2024-02-21T01:42:50;6.00;99.90
3919;DHT22;1974;48.670;8.994;2024-02-21T01:45:19;6.00;99.90
3919;DHT22;1974;48.670;8.994;2024-02-21T01:47:45;6.00;99.90
3919;DHT22;1974;48.670;8.994;2024-02-21T01:50:14;5.90;99.90
3919;DHT22;1974;48.670;8.994;2024-02-21T01:52:43;5.90;99.90
3919;DHT22;1974;48.670;8.994;2024-02-21T01:55:10;5.90;99.90
3919;DHT22;1974;48.670;8.994;2024-02-21T01:57:39;5.80;99.90
3919;DHT22;1974;48.670;8.994;2024-02-21T02:00:07;5.80;99.90
3919;DHT22;1974;48.670;8.994;2024-02-21T02:02:36;5.80;99.90
3919;DHT22;1974;48.670;8.994;2024-02-21T02:05:04;5.80;99.90
3919;DHT22;1974;48.670;8.994;2024-02-21T02:07:33;5.80;99.90
3919;DHT22;1974;48.670;8.994;2024-02-21T02:10:00;5.90;99.90
3919;DHT22;1974;48.670;8.994;2024-02-21T02:12:27;5.90;99.90
3919;DHT22;1974;48.670;8.994;2024-02-21T02:14:58;5.90;99.90
3919;DHT22;1974;48.670;8.994;2024-02-21T02:17:25;5.90;99.90
3919;DHT22;1974;48.670;8.994;2024-02-21T02:19:51;5.90;99.90
3919;DHT22;1974;48.670;8.994;2024-02-21T02:22:22;6.00;99.90
3919;DHT22;1974;48.670;8.994;2024-02-21T02:24:51;6.00;99.90
3919;DHT22;1974;48.670;8.994;2024-02-21T02:27:18;6.00;99.90
3919;DHT22;1974;48.670;8.994;2024-02-21T02:29:44;6.00;99.90
3919;DHT22;1974;48.670;8.994;2024-02-21T02:32:11;6.00;99.90
3919;DHT22;1974;48.670;8.994;2024-02-21T02:34:38;6.00;99.90
3919;DHT22;1974;48.670;8.994;2024-02-21T02:37:05;6.00;99.90
3919;DHT22;1974;48.670;8.994;2024-02-21T02:39:31;6.00;99.90
3919;DHT22;1974;48.670;8.994;2024-02-21T02:41:59;6.00;99.90
3919;DHT22;1974;48.670;8.994;2024-02-21T02:44:26;6.00;99.90
3919;DHT22;1974;48.670;8.994;2024-02-21T02:46:53;6.00;99.90
3919;DHT22;1974;48.670;8.994;2024-02-21T02:49:19;6.10;99.90
3919;DHT22;1974;48.670;8.994;2024-02-21T02:51:46;6.20;99.90
3919;DHT22;1974;48.670;8.994;2024-02-21T02:54:13;6.10;99.90
3919;DHT22;1974;48.670;8.994;2024-02-21T02:56:39;6.20;99.90
3919;DHT22;1974;48.670;8.994;2024-02-21T02:59:07;6.10;99.90
3919;DHT22;1974;48.670;8.994;2024-02-21T03:01:34;6.10;99.90
3919;DHT22;1974;48.670;8.994;2024-02-21T03:04:01;6.10;99.90
3919;DHT22;1974;48.670;8.994;2024-02-21T03:06:28;6.10;99.90
3919;DHT22;1974;48.670;8.994;2024-02-21T03:08:55;6.10;99.90
3919;DHT22;1974;48.670;8.994;2024-02-21T03:11:21;6.10;99.90
3919;DHT22;1974;48.670;8.994;2024-02-21T03:13:54;6.10;99.90
3919;DHT22;1974;48.670;8.994;2024-02-21T03:16:22;6.20;99.90
3919;DHT22;1974;48.670;8.994;2024-02-21T03:18:49;6.20;99.90
3919;DHT22;1974;48.670;8.994;2024-02-21T03:21:15;6.20;99.90
3919;DHT22;1974;48.670;8.994;2024-02-21T03:23:42;6.20;99.90
3919;DHT22;1974;48.670;8.994;2024-02-21T03:26:09;6.20;99.90
3919;DHT22;1974;48.670;8.994;2024-02-21T03:28:35;6.20;99.90
3919;DHT22;1974;48.670;8.994;2024-02-21T03:31:02;6.20;99.90
3919;DHT22;1974;48.670;8.994;2024-02-21T03:33:30;6.20;99.90
3919;DHT22;1974;48.670;8.994;2024-02-21T03:35:57;6.20;99.90
3919;DHT22;1974;48.670;8.994;2024-02-21T03:38:24;6.10;99.90
3919;DHT22;1974;48.670;8.994;2024-02-21T03:40:51;6.10;99.90
3919;DHT22;1974;48.670;8.994;2024-02-21T03:43:17;6.10;99.90
3919;DHT22;1974;48.670;8.994;2024-02-21T03:45:44;6.10;99.90
3919;DHT22;1974;48.670;8.994;2024-02-21T03:48:11;6.10;99.90
3919;DHT22;1974;48.670;8.994;2024-02-21T03:50:39;6.10;99.90
3919;DHT22;1974;48.670;8.994;2024-02-21T03:53:05;6.10;99.90
3919;DHT22;1974;48.670;8.994;2024-02-21T03:55:32;6.10;99.90
3919;DHT22;1974;48.670;8.994;2024-02-21T03:57:59;6.10;99.90
3919;DHT22;1974;48.670;8.994;2024-02-21T04:00:25;6.00;99.90
3919;DHT22;1974;48.670;8.994;2024-02-21T04:02:52;6.10;99.90
3919;DHT22;1974;48.670;8.994;2024-02-21T04:05:19;6.10;99.90
3919;DHT22;1974;48.670;8.994;2024-02-21T04:07:47;6.10;99.90
3919;DHT22;1974;48.670;8.994;2024-02-21T04:10:13;6.10;99.90
3919;DHT22;1974;48.670;8.994;2024-02-21T04:12:40;6.10;99.90
3919;DHT22;1974;48.670;8.994;2024-02-21T04:15:07;6.10;99.90
3919;DHT22;1974;48.670;8.994;2024-02-21T04:17:34;6.00;99.90
3919;DHT22;1974;48.670;8.994;2024-02-21T04:20:03;6.00;99.90
3919;DHT22;1974;48.670;8.994;2024-02-21T04:22:31;5.90;99.90
3919;DHT22;1974;48.670;8.994;2024-02-21T04:24:59;5.90;99.90
3919;DHT22;1974;48.670;8.994;2024-02-21T04:27:26;5.80;99.90
3919;DHT22;1974;48.670;8.994;2024-02-21T04:29:53;5.80;99.90
3919;DHT22;1974;48.670;8.994;2024-02-21T04:32:20;5.80;99.90
3919;DHT22;1974;48.670;8.994;2024-02-21T04:34:46;5.80;99.90
3919;DHT22;1974;48.670;8.994;2024-02-21T04:37:13;5.70;99.90
3919;DHT22;1974;48.670;8.994;2024-02-21T04:39:40;5.70;99.90
3919;DHT22;1974;48.670;8.994;2024-02-21T04:42:08;5.70;99.90
3919;DHT22;1974;48.670;8.994;2024-02-21T04:44:34;5.70;99.90
3919;DHT22;1974;48.670;8.994;2024-02-21T04:47:01;5.70;99.90
3919;DHT22;1974;48.670;8.994;2024-02-21T04:49:29;5.60;99.90
3919;DHT22;1974;48.670;8.994;2024-02-21T04:51:55;5.60;99.90
3919;DHT22;1974;48.670;8.994;2024-02-21T04:54:22;5.60;99.90
3919;DHT22;1974;48.670;8.994;2024-02-21T04:56:49;5.50;99.90
3919;DHT22;1974;48.670;8.994;2024-02-21T04:59:17;5.60;99.90
3919;DHT22;1974;48.670;8.994;2024-02-21T05:01:44;5.50;99.90
3919;DHT22;1974;48.670;8.994;2024-02-21T05:04:10;5.50;99.90
3919;DHT22;1974;48.670;8.994;2024-02-21T05:06:37;5.50;99.90
3919;DHT22;1974;48.670;8.994;2024-02-21T05:09:05;5.50;99.90
3919;DHT22;1974;48.670;8.994;2024-02-21T05:11:31;5.50;99.90
3919;DHT22;1974;48.670;8.994;2024-02-21T05:13:58;5.40;99.90
3919;DHT22;1974;48.670;8.994;2024-02-21T05:16:26;5.40;99.90
3919;DHT22;1974;48.670;8.994;2024-02-21T05:18:53;5.40;99.90
3919;DHT22;1974;48.670;8.994;2024-02-21T05:21:19;5.30;99.90
3919;DHT22;1974;48.670;8.994;2024-02-21T05:23:46;5.20;99.90
3919;DHT22;1974;48.670;8.994;2024-02-21T05:26:20;5.20;99.90
3919;DHT22;1974;48.670;8.994;2024-02-21T05:28:47;5.20;99.90
3919;DHT22;1974;48.670;8.994;2024-02-21T05:31:13;5.20;99.90
3919;DHT22;1974;48.670;8.994;2024-02-21T05:33:42;5.10;99.90
3919;DHT22;1974;48.670;8.994;2024-02-21T05:36:09;5.10;99.90
3919;DHT22;1974;48.670;8.994;2024-02-21T05:38:36;5.10;99.90
3919;DHT22;1974;48.670;8.994;2024-02-21T05:41:03;5.00;99.90
3919;DHT22;1974;48.670;8.994;2024-02-21T05:43:30;4.90;99.90
3919;DHT22;1974;48.670;8.994;2024-02-21T05:45:57;4.90;99.90
3919;DHT22;1974;48.670;8.994;2024-02-21T05:48:23;5.00;99.90
3919;DHT22;1974;48.670;8.994;2024-02-21T05:50:52;5.00;99.90
3919;DHT22;1974;48.670;8.994;2024-02-21T05:53:18;5.00;99.90
3919;DHT22;1974;48.670;8.994;2024-02-21T05:55:45;4.90;99.90
3919;DHT22;1974;48.670;8.994;2024-02-21T05:58:12;4.90;99.90
3919;DHT22;1974;48.670;8.994;2024-02-21T06:00:39;5.00;99.90
3919;DHT22;1974;48.670;8.994;2024-02-21T06:03:06;5.00;99.90
3919;DHT22;1974;48.670;8.994;2024-02-21T06:05:36;5.00;99.90
3919;DHT22;1974;48.670;8.994;2024-02-21T06:08:05;5.00;99.90
3919;DHT22;1974;48.670;8.994;2024-02-21T06:10:32;5.00;99.90
3919;DHT22;1974;48.670;8.994;2024-02-21T06:12:59;5.00;99.90
3919;DHT22;1974;48.670;8.994;2024-02-21T06:15:25;5.10;99.90
3919;DHT22;1974;48.670;8.994;2024-02-21T06:17:52;5.10;99.90
3919;DHT22;1974;48.670;8.994;2024-02-21T06:20:19;5.10;99.90
3919;DHT22;1974;48.670;8.994;2024-02-21T06:22:45;5.00;99.90
3919;DHT22;1974;48.670;8.994;2024-02-21T06:25:13;5.10;99.90
3919;DHT22;1974;48.670;8.994;2024-02-21T06:27:40;5.10;99.90
3919;DHT22;1974;48.670;8.994;2024-02-21T06:30:08;5.10;99.90
3919;DHT22;1974;48.670;8.994;2024-02-21T06:32:35;5.10;99.90
3919;DHT22;1974;48.670;8.994;2024-02-21T06:35:01;5.10;99.90
3919;DHT22;1974;48.670;8.994;2024-02-21T06:37:28;5.10;99.90
3919;DHT22;1974;48.670;8.994;2024-02-21T06:39:55;5.10;99.90
3919;DHT22;1974;48.670;8.994;2024-02-21T06:42:25;5.20;99.90
3919;DHT22;1974;48.670;8.994;2024-02-21T06:44:52;5.20;99.90
3919;DHT22;1974;48.670;8.994;2024-02-21T06:47:19;5.20;99.90
3919;DHT22;1974;48.670;8.994;2024-02-21T06:49:48;5.20;99.90
3919;DHT22;1974;48.670;8.994;2024-02-21T06:52:17;5.20;99.90
3919;DHT22;1974;48.670;8.994;2024-02-21T06:54:45;5.30;99.90
3919;DHT22;1974;48.670;8.994;2024-02-21T06:57:12;5.40;99.90
3919;DHT22;1974;48.670;8.994;2024-02-21T06:59:40;5.40;99.90
3919;DHT22;1974;48.670;8.994;2024-02-21T07:02:07;5.50;99.90
3919;DHT22;1974;48.670;8.994;2024-02-21T07:04:34;5.50;99.90
3919;DHT22;1974;48.670;8.994;2024-02-21T07:07:01;5.60;99.90
3919;DHT22;1974;48.670;8.994;2024-02-21T07:09:28;5.60;99.90
3919;DHT22;1974;48.670;8.994;2024-02-21T07:11:57;5.70;99.90
3919;DHT22;1974;48.670;8.994;2024-02-21T07:14:24;5.70;99.90
3919;DHT22;1974;48.670;8.994;2024-02-21T07:16:52;5.80;99.90
3919;DHT22;1974;48.670;8.994;2024-02-21T07:19:19;5.80;99.90
3919;DHT22;1974;48.670;8.994;2024-02-21T07:21:46;5.80;99.90
3919;DHT22;1974;48.670;8.994;2024-02-21T07:24:13;5.90;99.90
3919;DHT22;1974;48.670;8.994;2024-02-21T07:26:41;5.90;99.90
3919;DHT22;1974;48.670;8.994;2024-02-21T07:29:08;6.00;99.90
3919;DHT22;1974;48.670;8.994;2024-02-21T07:31:40;6.10;99.90
3919;DHT22;1974;48.670;8.994;2024-02-21T07:34:08;6.20;99.90
3919;DHT22;1974;48.670;8.994;2024-02-21T07:36:35;6.30;99.90
3919;DHT22;1974;48.670;8.994;2024-02-21T07:39:03;6.30;99.90
3919;DHT22;1974;48.670;8.994;2024-02-21T07:41:30;6.40;99.90
3919;DHT22;1974;48.670;8.994;2024-02-21T07:43:56;6.40;99.90
3919;DHT22;1974;48.670;8.994;2024-02-21T07:46:23;6.60;99.90
3919;DHT22;1974;48.670;8.994;2024-02-21T07:48:50;6.70;99.90
3919;DHT22;1974;48.670;8.994;2024-02-21T07:51:18;6.70;99.90
3919;DHT22;1974;48.670;8.994;2024-02-21T07:53:45;6.70;99.90
3919;DHT22;1974;48.670;8.994;2024-02-21T07:56:13;6.80;99.90
3919;DHT22;1974;48.670;8.994;2024-02-21T07:58:40;6.90;99.90
3919;DHT22;1974;48.670;8.994;2024-02-21T08:01:07;7.00;99.90
3919;DHT22;1974;48.670;8.994;2024-02-21T08:03:34;7.00;99.90
3919;DHT22;1974;48.670;8.994;2024-02-21T08:06:02;7.00;99.90
3919;DHT22;1974;48.670;8.994;2024-02-21T08:08:30;7.10;99.90
3919;DHT22;1974;48.670;8.994;2024-02-21T08:10:56;7.20;99.90
3919;DHT22;1974;48.670;8.994;2024-02-21T08:13:23;7.20;99.90
3919;DHT22;1974;48.670;8.994;2024-02-21T08:15:50;7.30;99.90
3919;DHT22;1974;48.670;8.994;2024-02-21T08:18:16;7.30;99.90
3919;DHT22;1974;48.670;8.994;2024-02-21T08:20:43;7.40;99.90
3919;DHT22;1974;48.670;8.994;2024-02-21T08:23:10;7.40;99.90
3919;DHT22;1974;48.670;8.994;2024-02-21T08:25:38;7.60;99.90
3919;DHT22;1974;48.670;8.994;2024-02-21T08:28:05;7.70;99.90
3919;DHT22;1974;48.670;8.994;2024-02-21T08:30:32;7.90;99.90
3919;DHT22;1974;48.670;8.994;2024-02-21T08:32:58;8.10;99.90
3919;DHT22;1974;48.670;8.994;2024-02-21T08:35:25;8.30;99.90
3919;DHT22;1974;48.670;8.994;2024-02-21T08:37:52;8.50;99.90
3919;DHT22;1974;48.670;8.994;2024-02-21T08:40:19;8.60;99.90
3919;DHT22;1974;48.670;8.994;2024-02-21T08:42:48;8.70;99.90
3919;DHT22;1974;48.670;8.994;2024-02-21T08:45:15;8.90;99.90
3919;DHT22;1974;48.670;8.994;2024-02-21T08:47:42;8.90;99.90
3919;DHT22;1974;48.670;8.994;2024-02-21T08:50:10;9.10;99.90
3919;DHT22;1974;48.670;8.994;2024-02-21T08:52:36;9.20;99.90
3919;DHT22;1974;48.670;8.994;2024-02-21T08:55:04;9.20;99.90
3919;DHT22;1974;48.670;8.994;2024-02-21T08:57:30;9.30;99.90
3919;DHT22;1974;48.670;8.994;2024-02-21T09:00:03;9.30;99.90
3919;DHT22;1974;48.670;8.994;2024-02-21T09:02:35;9.30;99.90
3919;DHT22;1974;48.670;8.994;2024-02-21T09:05:02;9.20;99.90
3919;DHT22;1974;48.670;8.994;2024-02-21T09:07:30;9.20;99.90
3919;DHT22;1974;48.670;8.994;2024-02-21T09:09:57;9.20;99.90
3919;DHT22;1974;48.670;8.994;2024-02-21T09:12:23;9.30;99.90
3919;DHT22;1974;48.670;8.994;2024-02-21T09:14:50;9.30;99.90
3919;DHT22;1974;48.670;8.994;2024-02-21T09:17:18;9.50;99.90
3919;DHT22;1974;48.670;8.994;2024-02-21T09:19:46;9.60;99.90
3919;DHT22;1974;48.670;8.994;2024-02-21T09:22:13;9.90;99.90
3919;DHT22;1974;48.670;8.994;2024-02-21T09:24:40;10.00;99.90
3919;DHT22;1974;48.670;8.994;2024-02-21T09:27:06;10.10;99.90
3919;DHT22;1974;48.670;8.994;2024-02-21T09:29:33;10.30;99.90
3919;DHT22;1974;48.670;8.994;2024-02-21T09:32:00;10.70;99.90
3919;DHT22;1974;48.670;8.994;2024-02-21T09:34:29;11.40;99.90
3919;DHT22;1974;48.670;8.994;2024-02-21T09:36:56;11.90;99.90
3919;DHT22;1974;48.670;8.994;2024-02-21T09:39:23;12.60;99.90
3919;DHT22;1974;48.670;8.994;2024-02-21T09:41:50;12.90;99.90
3919;DHT22;1974;48.670;8.994;2024-02-21T09:44:21;13.30;99.90
3919;DHT22;1974;48.670;8.994;2024-02-21T09:46:57;13.80;99.90
3919;DHT22;1974;48.670;8.994;2024-02-21T09:49:31;14.50;99.90
3919;DHT22;1974;48.670;8.994;2024-02-21T09:52:01;14.70;99.90
3919;DHT22;1974;48.670;8.994;2024-02-21T09:54:29;15.00;99.90
3919;DHT22;1974;48.670;8.994;2024-02-21T09:56:56;15.20;99.90
3919;DHT22;1974;48.670;8.994;2024-02-21T09:59:24;15.60;99.90
3919;DHT22;1974;48.670;8.994;2024-02-21T10:01:51;15.80;99.90
3919;DHT22;1974;48.670;8.994;2024-02-21T10:04:19;16.00;99.90
3919;DHT22;1974;48.670;8.994;2024-02-21T10:06:47;16.00;99.90
3919;DHT22;1974;48.670;8.994;2024-02-21T10:09:21;16.10;99.90
3919;DHT22;1974;48.670;8.994;2024-02-21T10:11:48;16.20;99.90
3919;DHT22;1974;48.670;8.994;2024-02-21T10:14:15;16.20;99.90
3919;DHT22;1974;48.670;8.994;2024-02-21T10:16:42;15.70;99.90
3919;DHT22;1974;48.670;8.994;2024-02-21T10:19:16;15.40;99.90
3919;DHT22;1974;48.670;8.994;2024-02-21T10:21:43;15.20;99.90
3919;DHT22;1974;48.670;8.994;2024-02-21T10:24:12;15.10;99.90
3919;DHT22;1974;48.670;8.994;2024-02-21T10:26:38;14.90;99.90
3919;DHT22;1974;48.670;8.994;2024-02-21T10:29:05;14.80;99.90
3919;DHT22;1974;48.670;8.994;2024-02-21T10:31:32;14.90;99.90
3919;DHT22;1974;48.670;8.994;2024-02-21T10:34:00;14.90;99.90
3919;DHT22;1974;48.670;8.994;2024-02-21T10:36:29;14.70;99.90
3919;DHT22;1974;48.670;8.994;2024-02-21T10:38:56;14.70;99.90
3919;DHT22;1974;48.670;8.994;2024-02-21T10:41:24;14.70;99.90
3919;DHT22;1974;48.670;8.994;2024-02-21T10:43:53;14.50;99.90
3919;DHT22;1974;48.670;8.994;2024-02-21T10:46:21;14.70;99.90
3919;DHT22;1974;48.670;8.994;2024-02-21T10:48:55;15.10;99.90
3919;DHT22;1974;48.670;8.994;2024-02-21T10:51:30;15.40;99.90
3919;DHT22;1974;48.670;8.994;2024-02-21T10:54:11;15.60;99.90
3919;DHT22;1974;48.670;8.994;2024-02-21T10:56:41;15.50;99.90
3919;DHT22;1974;48.670;8.994;2024-02-21T10:59:08;15.20;99.40
3919;DHT22;1974;48.670;8.994;2024-02-21T11:01:35;15.10;99.90
3919;DHT22;1974;48.670;8.994;2024-02-21T11:04:04;14.90;99.90
3919;DHT22;1974;48.670;8.994;2024-02-21T11:06:31;14.80;99.90
3919;DHT22;1974;48.670;8.994;2024-02-21T11:09:00;14.60;99.90
3919;DHT22;1974;48.670;8.994;2024-02-21T11:11:28;14.50;99.90
3919;DHT22;1974;48.670;8.994;2024-02-21T11:14:05;14.30;99.80
3919;DHT22;1974;48.670;8.994;2024-02-21T11:16:36;14.20;99.90
3919;DHT22;1974;48.670;8.994;2024-02-21T11:19:05;14.10;99.90
3919;DHT22;1974;48.670;8.994;2024-02-21T11:21:33;13.80;99.90
3919;DHT22;1974;48.670;8.994;2024-02-21T11:24:00;13.70;99.90
3919;DHT22;1974;48.670;8.994;2024-02-21T11:26:28;13.40;99.90
3919;DHT22;1974;48.670;8.994;2024-02-21T11:28:58;13.20;99.90
3919;DHT22;1974;48.670;8.994;2024-02-21T11:31:27;13.10;99.90
3919;DHT22;1974;48.670;8.994;2024-02-21T11:34:04;13.10;99.90
3919;DHT22;1974;48.670;8.994;2024-02-21T11:36:31;13.20;99.90
3919;DHT22;1974;48.670;8.994;2024-02-21T11:39:03;13.20;99.90
3919;DHT22;1974;48.670;8.994;2024-02-21T11:41:30;13.30;99.90
3919;DHT22;1974;48.670;8.994;2024-02-21T11:43:57;13.40;99.90
3919;DHT22;1974;48.670;8.994;2024-02-21T11:46:24;13.40;99.90
3919;DHT22;1974;48.670;8.994;2024-02-21T11:48:52;13.60;99.90
3919;DHT22;1974;48.670;8.994;2024-02-21T11:51:24;13.60;99.90
3919;DHT22;1974;48.670;8.994;2024-02-21T11:53:52;13.50;99.90
3919;DHT22;1974;48.670;8.994;2024-02-21T11:56:19;13.50;99.90
3919;DHT22;1974;48.670;8.994;2024-02-21T11:58:46;13.40;99.90
3919;DHT22;1974;48.670;8.994;2024-02-21T12:01:12;13.30;98.80
3919;DHT22;1974;48.670;8.994;2024-02-21T12:03:39;13.20;98.80
3919;DHT22;1974;48.670;8.994;2024-02-21T12:06:08;13.20;99.50
3919;DHT22;1974;48.670;8.994;2024-02-21T12:08:41;13.20;99.30
3919;DHT22;1974;48.670;8.994;2024-02-21T12:11:19;13.30;99.40
3919;DHT22;1974;48.670;8.994;2024-02-21T12:13:46;13.30;99.60
3919;DHT22;1974;48.670;8.994;2024-02-21T12:16:15;13.40;98.80
3919;DHT22;1974;48.670;8.994;2024-02-21T12:18:43;13.50;99.70
3919;DHT22;1974;48.670;8.994;2024-02-21T12:21:11;13.60;99.00
3919;DHT22;1974;48.670;8.994;2024-02-21T12:23:38;13.50;97.90
3919;DHT22;1974;48.670;8.994;2024-02-21T12:26:05;13.20;98.60
3919;DHT22;1974;48.670;8.994;2024-02-21T12:28:33;13.30;99.10
3919;DHT22;1974;48.670;8.994;2024-02-21T12:31:00;13.40;98.60
3919;DHT22;1974;48.670;8.994;2024-02-21T12:33:29;13.50;97.60
3919;DHT22;1974;48.670;8.994;2024-02-21T12:35:55;13.50;98.00
3919;DHT22;1974;48.670;8.994;2024-02-21T12:38:23;13.50;97.10
3919;DHT22;1974;48.670;8.994;2024-02-21T12:40:50;13.50;97.00
3919;DHT22;1974;48.670;8.994;2024-02-21T12:43:17;13.50;96.50
3919;DHT22;1974;48.670;8.994;2024-02-21T12:45:45;13.50;96.70
3919;DHT22;1974;48.670;8.994;2024-02-21T12:48:11;13.50;96.50
3919;DHT22;1974;48.670;8.994;2024-02-21T12:50:39;13.50;96.70
3919;DHT22;1974;48.670;8.994;2024-02-21T12:53:07;13.60;96.70
3919;DHT22;1974;48.670;8.994;2024-02-21T12:55:35;13.50;97.40
3919;DHT22;1974;48.670;8.994;2024-02-21T12:58:03;13.50;97.20
3919;DHT22;1974;48.670;8.994;2024-02-21T13:00:31;13.40;96.70
3919;DHT22;1974;48.670;8.994;2024-02-21T13:02:57;13.30;97.40
3919;DHT22;1974;48.670;8.994;2024-02-21T13:05:24;13.40;97.40
3919;DHT22;1974;48.670;8.994;2024-02-21T13:07:51;13.30;97.00
3919;DHT22;1974;48.670;8.994;2024-02-21T13:10:18;13.40;97.90
3919;DHT22;1974;48.670;8.994;2024-02-21T13:12:46;13.10;97.50
3919;DHT22;1974;48.670;8.994;2024-02-21T13:15:13;13.10;97.50
3919;DHT22;1974;48.670;8.994;2024-02-21T13:17:41;13.10;98.70
3919;DHT22;1974;48.670;8.994;2024-02-21T13:20:09;12.90;97.50
3919;DHT22;1974;48.670;8.994;2024-02-21T13:22:36;12.90;97.40
3919;DHT22;1974;48.670;8.994;2024-02-21T13:25:03;12.80;98.10
3919;DHT22;1974;48.670;8.994;2024-02-21T13:27:32;12.80;98.10
3919;DHT22;1974;48.670;8.994;2024-02-21T13:30:00;12.90;98.70
3919;DHT22;1974;48.670;8.994;2024-02-21T13:32:31;12.80;98.10
3919;DHT22;1974;48.670;8.994;2024-02-21T13:34:58;12.80;98.50
3919;DHT22;1974;48.670;8.994;2024-02-21T13:37:26;12.80;98.30
3919;DHT22;1974;48.670;8.994;2024-02-21T13:39:54;12.80;98.50
3919;DHT22;1974;48.670;8.994;2024-02-21T13:42:21;12.80;98.90
3919;DHT22;1974;48.670;8.994;2024-02-21T13:44:49;12.90;97.90
3919;DHT22;1974;48.670;8.994;2024-02-21T13:47:17;12.90;98.40
3919;DHT22;1974;48.670;8.994;2024-02-21T13:49:45;12.80;97.70
3919;DHT22;1974;48.670;8.994;2024-02-21T13:52:13;12.80;97.90
3919;DHT22;1974;48.670;8.994;2024-02-21T13:54:39;12.90;97.70
3919;DHT22;1974;48.670;8.994;2024-02-21T13:57:07;13.00;97.70
3919;DHT22;1974;48.670;8.994;2024-02-21T13:59:34;13.00;97.90
3919;DHT22;1974;48.670;8.994;2024-02-21T14:02:01;13.00;96.90
3919;DHT22;1974;48.670;8.994;2024-02-21T14:04:29;13.00;96.10
3919;DHT22;1974;48.670;8.994;2024-02-21T14:06:55;13.00;96.20
3919;DHT22;1974;48.670;8.994;2024-02-21T14:09:22;12.90;95.50
3919;DHT22;1974;48.670;8.994;2024-02-21T14:11:49;12.90;94.80
3919;DHT22;1974;48.670;8.994;2024-02-21T14:14:15;12.80;95.30
3919;DHT22;1974;48.670;8.994;2024-02-21T14:16:42;12.80;96.60
3919;DHT22;1974;48.670;8.994;2024-02-21T14:19:09;12.80;97.20
3919;DHT22;1974;48.670;8.994;2024-02-21T14:21:38;12.80;97.70
3919;DHT22;1974;48.670;8.994;2024-02-21T14:24:05;12.70;98.10
3919;DHT22;1974;48.670;8.994;2024-02-21T14:26:32;12.80;97.70
3919;DHT22;1974;48.670;8.994;2024-02-21T14:28:59;12.70;97.10
3919;DHT22;1974;48.670;8.994;2024-02-21T14:31:26;12.70;97.20
3919;DHT22;1974;48.670;8.994;2024-02-21T14:33:52;12.70;97.70
3919;DHT22;1974;48.670;8.994;2024-02-21T14:36:19;12.80;98.50
3919;DHT22;1974;48.670;8.994;2024-02-21T14:38:47;12.80;99.10
3919;DHT22;1974;48.670;8.994;2024-02-21T14:41:14;12.80;98.40
3919;DHT22;1974;48.670;8.994;2024-02-21T14:43:41;12.80;98.70
3919;DHT22;1974;48.670;8.994;2024-02-21T14:46:09;12.80;98.90
3919;DHT22;1974;48.670;8.994;2024-02-21T14:48:37;12.80;99.10
3919;DHT22;1974;48.670;8.994;2024-02-21T14:51:04;12.70;98.80
3919;DHT22;1974;48.670;8.994;2024-02-21T14:53:31;12.60;99.20
3919;DHT22;1974;48.670;8.994;2024-02-21T14:55:59;12.60;99.80
3919;DHT22;1974;48.670;8.994;2024-02-21T14:58:26;12.50;99.70
3919;DHT22;1974;48.670;8.994;2024-02-21T15:00:53;12.50;99.90
3919;DHT22;1974;48.670;8.994;2024-02-21T15:03:20;12.40;99.90
3919;DHT22;1974;48.670;8.994;2024-02-21T15:05:47;12.30;98.70
3919;DHT22;1974;48.670;8.994;2024-02-21T15:08:14;12.10;99.60
3919;DHT22;1974;48.670;8.994;2024-02-21T15:10:42;12.10;99.90
3919;DHT22;1974;48.670;8.994;2024-02-21T15:13:10;12.10;99.70
3919;DHT22;1974;48.670;8.994;2024-02-21T15:15:37;12.00;99.60
3919;DHT22;1974;48.670;8.994;2024-02-21T15:18:04;12.00;99.60
3919;DHT22;1974;48.670;8.994;2024-02-21T15:20:31;12.00;99.80
3919;DHT22;1974;48.670;8.994;2024-02-21T15:22:57;12.00;99.90
3919;DHT22;1974;48.670;8.994;2024-02-21T15:25:24;12.00;99.90
3919;DHT22;1974;48.670;8.994;2024-02-21T15:27:51;11.90;99.90
3919;DHT22;1974;48.670;8.994;2024-02-21T15:30:19;11.90;99.90
3919;DHT22;1974;48.670;8.994;2024-02-21T15:32:46;11.80;99.90
3919;DHT22;1974;48.670;8.994;2024-02-21T15:35:13;11.80;99.90
3919;DHT22;1974;48.670;8.994;2024-02-21T15:37:40;11.70;99.90
3919;DHT22;1974;48.670;8.994;2024-02-21T15:40:07;11.70;99.90
3919;DHT22;1974;48.670;8.994;2024-02-21T15:42:34;11.60;99.90
3919;DHT22;1974;48.670;8.994;2024-02-21T15:45:01;11.50;99.90
3919;DHT22;1974;48.670;8.994;2024-02-21T15:47:31;11.50;99.90
3919;DHT22;1974;48.670;8.994;2024-02-21T15:49:58;11.50;99.90
3919;DHT22;1974;48.670;8.994;2024-02-21T15:52:26;11.40;99.90
3919;DHT22;1974;48.670;8.994;2024-02-21T15:54:53;11.40;99.90
3919;DHT22;1974;48.670;8.994;2024-02-21T15:57:20;11.30;99.90
3919;DHT22;1974;48.670;8.994;2024-02-21T15:59:48;11.30;99.90
3919;DHT22;1974;48.670;8.994;2024-02-21T16:02:15;11.30;99.90
3919;DHT22;1974;48.670;8.994;2024-02-21T16:04:43;11.20;99.90
3919;DHT22;1974;48.670;8.994;2024-02-21T16:07:10;11.20;99.90
3919;DHT22;1974;48.670;8.994;2024-02-21T16:09:36;11.20;99.90
3919;DHT22;1974;48.670;8.994;2024-02-21T16:12:03;11.20;99.90
3919;DHT22;1974;48.670;8.994;2024-02-21T16:14:31;11.20;99.90